Terminal Aerodrome Forecast
Issued by NWS

Current Version | Previous Version | Text Only | Print | Product List | Glossary On
Versions: 1 2 3 4 5 6 7 8 9 10 11 12
000
FTUS42 TJSJ 022300
TAFISX
TAF
TISX 022333Z 0300/0324 09007KT P6SM SCT025
     FM031200 12013KT P6SM FEW025
     FM032300 06006KT P6SM FEW025=

USA.gov is the U.S. government's official web portal to all federal, state and local government web resources and services.